Time;durP1;ratioP1;P1;durP2;ratioP2;P2;SDS_P1;SDS_P2;PMS_P1;PMS_P2;Temp;Humidity;BMP_temperature;BMP_pressure;BME280_temperature;BME280_humidity;BME280_pressure;Samples;Min_cycle;Max_cycle;Signal;HPM_P1;HPM_P2
2022/06/21 00:00:59;;;;;;;9.00;6.63;;;;;;;18.02;100.00;96409.75;5037821;28;20095;-69
2022/06/21 00:03:26;;;;;;;8.50;5.55;;;;;;;17.94;100.00;96409.13;5017703;28;20557;-69
2022/06/21 00:05:53;;;;;;;8.50;5.50;;;;;;;17.99;100.00;96413.41;5016338;28;20064;-71
2022/06/21 00:08:22;;;;;;;12.90;5.40;;;;;;;18.01;100.00;96405.44;5016238;28;20034;-67
2022/06/21 00:10:48;;;;;;;9.35;5.95;;;;;;;18.00;100.00;96401.09;5023691;28;20033;-71
2022/06/21 00:13:15;;;;;;;11.27;6.15;;;;;;;18.01;100.00;96399.13;5016870;28;20065;-70
2022/06/21 00:15:42;;;;;;;8.07;5.90;;;;;;;17.91;100.00;96406.41;5022407;28;20103;-70
2022/06/21 00:18:12;;;;;;;13.63;6.30;;;;;;;17.98;100.00;96395.19;5017667;28;20525;-70
2022/06/21 00:20:38;;;;;;;;;;;;;;;18.09;100.00;96398.56;5022211;28;20049;-70
2022/06/21 00:23:04;;;;;;;9.48;5.93;;;;;;;18.02;100.00;96392.38;5020627;28;20425;-64
2022/06/21 00:25:29;;;;;;;9.60;6.18;;;;;;;18.02;100.00;96397.91;5019988;28;20132;-69
2022/06/21 00:27:55;;;;;;;10.77;6.70;;;;;;;18.05;100.00;96397.84;5022604;28;20132;-71
2022/06/21 00:30:22;;;;;;;10.73;6.03;;;;;;;18.05;100.00;96395.06;5021601;28;20525;-71
2022/06/21 00:32:51;;;;;;;13.90;6.63;;;;;;;18.00;100.00;96395.56;5021812;28;20041;-71
2022/06/21 00:35:20;;;;;;;8.77;6.20;;;;;;;17.90;100.00;96402.09;5018491;28;20441;-70
2022/06/21 00:37:46;;;;;;;11.52;6.63;;;;;;;17.89;100.00;96401.28;5023774;28;20061;-71
2022/06/21 00:40:17;;;;;;;9.10;6.03;;;;;;;17.80;100.00;96403.78;5016258;28;20083;-67
2022/06/21 00:42:46;;;;;;;9.77;6.78;;;;;;;17.81;100.00;96404.56;5022176;28;20052;-69
2022/06/21 00:45:25;;;;;;;10.15;6.50;;;;;;;17.78;100.00;96417.28;5016530;28;20507;-69
2022/06/21 00:47:55;;;;;;;10.43;6.68;;;;;;;17.76;100.00;96425.22;5022584;28;20041;-69
2022/06/21 00:50:33;;;;;;;9.38;6.65;;;;;;;17.75;100.00;96421.69;4998268;28;20140;-69
2022/06/21 00:53:21;;;;;;;10.48;6.38;;;;;;;17.72;100.00;96414.22;5015814;28;20412;-70
2022/06/21 00:56:28;;;;;;;11.48;7.47;;;;;;;17.75;100.00;96418.13;5022014;28;20091;-70
2022/06/21 00:58:54;;;;;;;10.00;6.60;;;;;;;17.71;100.00;96415.41;5021393;28;20049;-69
2022/06/21 01:01:32;;;;;;;12.90;6.60;;;;;;;17.65;100.00;96411.56;5016608;28;20045;-70
2022/06/21 01:04:10;;;;;;;12.35;6.95;;;;;;;17.64;100.00;96407.22;5020600;28;20064;-69
2022/06/21 01:06:40;;;;;;;10.93;6.70;;;;;;;17.63;100.00;96413.16;5013169;28;20037;-71
2022/06/21 01:09:10;;;;;;;9.05;7.32;;;;;;;17.62;100.00;96408.84;5020371;28;20041;-70
2022/06/21 01:11:46;;;;;;;13.13;7.00;;;;;;;17.61;100.00;96402.53;5027387;28;20042;-72
2022/06/21 01:14:14;;;;;;;11.70;7.43;;;;;;;17.57;100.00;96399.00;5025317;28;20088;-70
2022/06/21 01:16:40;;;;;;;10.13;6.68;;;;;;;17.48;100.00;96407.84;5022351;28;20119;-70
2022/06/21 01:19:18;;;;;;;9.70;7.50;;;;;;;17.44;100.00;96389.75;5017575;28;20034;-69
2022/06/21 01:21:48;;;;;;;11.85;7.85;;;;;;;17.51;100.00;96392.41;5022824;28;20041;-70
2022/06/21 01:24:36;;;;;;;10.43;7.22;;;;;;;17.47;100.00;96378.63;5026950;28;20057;-69
2022/06/21 01:27:03;;;;;;;12.63;7.90;;;;;;;17.41;100.00;96382.28;5044656;28;20033;-65
2022/06/21 01:29:31;;;;;;;11.55;7.70;;;;;;;17.32;100.00;96371.72;5027223;28;20042;-69
2022/06/21 01:32:01;;;;;;;10.13;7.95;;;;;;;17.31;100.00;96379.25;5021782;28;20394;-70
2022/06/21 01:34:28;;;;;;;;;;;;;;;17.29;100.00;96361.50;5017638;28;20126;-68
2022/06/21 01:37:08;;;;;;;12.65;7.25;;;;;;;17.26;100.00;96373.41;5021689;28;19920;-70
2022/06/21 01:39:41;;;;;;;15.55;8.07;;;;;;;17.23;100.00;96365.94;5020610;28;20044;-71
2022/06/21 01:42:30;;;;;;;14.23;8.05;;;;;;;17.15;100.00;96363.28;5014163;28;20098;-70
2022/06/21 01:45:02;;;;;;;12.50;7.33;;;;;;;17.16;100.00;96361.28;5020488;28;20391;-72
2022/06/21 01:47:41;;;;;;;13.98;7.32;;;;;;;17.19;100.00;96366.00;5018934;28;20042;-72
2022/06/21 01:50:09;;;;;;;13.20;7.73;;;;;;;17.11;100.00;96368.09;5017688;28;20049;-72
2022/06/21 01:52:40;;;;;;;13.20;8.57;;;;;;;17.13;100.00;96371.22;5033670;28;20056;-67
2022/06/21 01:55:11;;;;;;;12.63;7.57;;;;;;;17.17;100.00;96383.00;5039690;28;20049;-66
2022/06/21 01:57:38;;;;;;;13.00;8.02;;;;;;;17.13;100.00;96385.06;5020879;28;20037;-71
2022/06/21 02:00:05;;;;;;;13.85;7.97;;;;;;;17.13;100.00;96381.50;5017073;28;20041;-65
2022/06/21 02:02:42;;;;;;;11.02;8.00;;;;;;;17.08;100.00;96388.28;5019467;28;20124;-68
2022/06/21 02:05:13;;;;;;;13.18;7.65;;;;;;;17.12;100.00;96375.19;5016662;28;20045;-71
2022/06/21 02:07:45;;;;;;;10.68;7.63;;;;;;;17.08;100.00;96373.69;5029456;28;20037;-70
2022/06/21 02:10:22;;;;;;;11.05;7.60;;;;;;;17.07;100.00;96370.13;5026073;28;20108;-72
2022/06/21 02:12:56;;;;;;;11.95;7.75;;;;;;;17.06;100.00;96370.53;5033412;28;20060;-69
2022/06/21 02:15:29;;;;;;;9.07;7.05;;;;;;;17.04;100.00;96372.94;5016703;28;20514;-69
2022/06/21 02:17:54;;;;;;;15.45;8.25;;;;;;;17.05;100.00;96366.19;5017276;28;20041;-71
2022/06/21 02:20:27;;;;;;;15.02;8.07;;;;;;;17.13;100.00;96365.69;5015637;28;20033;-70
2022/06/21 02:22:52;;;;;;;14.60;8.63;;;;;;;17.07;100.00;96359.06;5034164;28;20045;-69
2022/06/21 02:25:23;;;;;;;13.15;8.40;;;;;;;17.08;100.00;96362.59;5011809;28;20120;-70
2022/06/21 02:27:50;;;;;;;22.00;8.50;;;;;;;17.05;100.00;96366.19;4998777;28;20045;-72
2022/06/21 02:30:22;;;;;;;14.52;8.07;;;;;;;17.02;100.00;96367.84;5016395;28;20094;-70
2022/06/21 02:32:50;;;;;;;11.80;7.65;;;;;;;17.00;100.00;96359.16;5018057;28;20056;-69
2022/06/21 02:35:29;;;;;;;16.40;8.07;;;;;;;16.94;100.00;96363.59;5012383;28;20060;-68
2022/06/21 02:37:59;;;;;;;16.33;8.77;;;;;;;16.95;100.00;96362.41;5019667;28;20395;-69
2022/06/21 02:40:26;;;;;;;;;;;;;;;16.91;100.00;96356.91;5012524;28;20481;-70
2022/06/21 02:42:57;;;;;;;13.18;8.70;;;;;;;16.89;100.00;96353.78;5020055;28;20083;-69
2022/06/21 02:45:37;;;;;;;14.85;9.85;;;;;;;16.86;100.00;96356.59;5014649;28;20746;-70
2022/06/21 02:48:12;;;;;;;12.35;8.35;;;;;;;16.83;100.00;96344.38;5012745;28;20041;-65
2022/06/21 02:50:44;;;;;;;11.55;8.57;;;;;;;16.78;100.00;96351.16;5022021;28;20049;-70
2022/06/21 02:53:34;;;;;;;12.73;8.05;;;;;;;16.74;100.00;96353.16;5018760;28;20038;-70
2022/06/21 02:56:07;;;;;;;12.88;8.52;;;;;;;16.72;100.00;96360.31;5019701;28;20409;-70
2022/06/21 02:58:41;;;;;;;10.25;7.88;;;;;;;16.65;100.00;96363.16;5016299;28;20105;-70
2022/06/21 03:01:31;;;;;;;16.95;8.43;;;;;;;16.62;100.00;96351.75;5018588;28;20099;-69
2022/06/21 03:03:58;;;;;;;12.35;8.98;;;;;;;16.61;100.00;96352.94;5020970;28;20516;-71
2022/06/21 03:06:24;;;;;;;21.73;9.55;;;;;;;16.51;100.00;96356.63;5034295;28;20524;-70
2022/06/21 03:08:58;;;;;;;13.93;9.73;;;;;;;16.52;100.00;96354.66;5021283;28;20037;-72
2022/06/21 03:11:28;;;;;;;11.93;8.63;;;;;;;16.43;100.00;96355.91;5016360;28;20686;-69
2022/06/21 03:13:55;;;;;;;14.70;9.38;;;;;;;16.40;100.00;96354.00;5027220;28;20137;-70
2022/06/21 03:16:22;;;;;;;18.25;8.88;;;;;;;16.42;100.00;96353.56;5020191;28;20505;-70
2022/06/21 03:18:54;;;;;;;13.23;9.65;;;;;;;16.39;100.00;96344.13;5023891;28;20188;-71
2022/06/21 03:21:30;;;;;;;12.35;9.38;;;;;;;16.37;100.00;96346.53;5018652;28;20036;-71
2022/06/21 03:23:58;;;;;;;13.15;9.40;;;;;;;16.35;100.00;96345.34;5020893;28;20069;-68
2022/06/21 03:26:26;;;;;;;16.90;9.93;;;;;;;16.30;100.00;96341.09;5034121;28;20563;-71
2022/06/21 03:28:52;;;;;;;13.30;9.70;;;;;;;16.26;100.00;96351.41;5021480;28;20037;-71
2022/06/21 03:31:37;;;;;;;17.95;10.55;;;;;;;16.25;100.00;96341.53;5015547;28;20045;-71
2022/06/21 03:34:13;;;;;;;17.75;10.32;;;;;;;16.19;100.00;96343.97;5018495;28;20064;-65
2022/06/21 03:36:40;;;;;;;15.50;10.15;;;;;;;16.20;100.00;96339.22;5003758;28;20046;-69
2022/06/21 03:39:15;;;;;;;15.70;10.48;;;;;;;16.24;100.00;96332.47;5014399;28;20137;-68
2022/06/21 03:41:44;;;;;;;15.45;11.00;;;;;;;16.23;100.00;96341.16;5022763;28;20410;-69
2022/06/21 03:44:17;;;;;;;21.13;12.30;;;;;;;16.25;100.00;96338.78;5019037;28;20073;-70
2022/06/21 03:46:46;;;;;;;14.73;10.43;;;;;;;16.22;100.00;96337.63;5019178;28;20392;-69
2022/06/21 03:49:23;;;;;;;15.68;11.23;;;;;;;16.17;100.00;96335.31;5017398;28;20041;-69
2022/06/21 03:51:50;;;;;;;13.80;10.35;;;;;;;16.14;100.00;96314.03;5022112;28;20049;-68
2022/06/21 03:54:23;;;;;;;15.85;11.82;;;;;;;16.14;100.00;96311.28;5015039;28;20072;-69
2022/06/21 03:57:12;;;;;;;15.60;11.05;;;;;;;16.13;100.00;96308.91;5022723;28;20049;-69
2022/06/21 03:59:43;;;;;;;15.68;11.02;;;;;;;16.14;100.00;96316.78;5022790;28;20063;-69
2022/06/21 04:02:14;;;;;;;14.60;10.88;;;;;;;16.08;100.00;96303.84;5017309;28;20033;-69
2022/06/21 04:04:50;;;;;;;14.30;10.40;;;;;;;16.07;100.00;96310.56;5021275;28;20045;-69
2022/06/21 04:07:25;;;;;;;14.30;10.52;;;;;;;16.10;100.00;96310.53;5018450;28;20791;-69
2022/06/21 04:10:07;;;;;;;16.20;11.68;;;;;;;16.17;100.00;96317.94;5020200;28;20047;-70
2022/06/21 04:12:48;;;;;;;16.63;11.32;;;;;;;16.14;100.00;96305.75;5019956;28;20050;-68
2022/06/21 04:15:22;;;;;;;14.73;10.13;;;;;;;16.10;100.00;96288.44;5056314;22;20053;-66
2022/06/21 04:17:48;;;;;;;18.23;10.07;;;;;;;16.08;100.00;96306.59;5017012;28;20041;-66
2022/06/21 04:20:26;;;;;;;14.73;10.38;;;;;;;16.14;100.00;96313.25;5016573;28;20063;-66
2022/06/21 04:23:01;;;;;;;18.25;11.95;;;;;;;16.15;100.00;96306.53;5023461;28;20140;-66
2022/06/21 04:25:34;;;;;;;14.43;9.70;;;;;;;16.20;100.00;96317.13;5016304;28;20107;-65
2022/06/21 04:28:07;;;;;;;14.68;10.68;;;;;;;16.33;100.00;96315.41;5021163;28;20052;-66
2022/06/21 04:30:38;;;;;;;15.63;10.38;;;;;;;16.35;100.00;96318.53;5018717;28;20049;-65
2022/06/21 04:33:35;;;;;;;15.15;9.18;;;;;;;16.47;100.00;96321.94;5020651;28;20123;-66
2022/06/21 04:36:12;;;;;;;11.02;9.25;;;;;;;16.52;100.00;96330.53;4986724;28;20256;-65
2022/06/21 04:38:56;;;;;;;11.48;8.15;;;;;;;16.49;100.00;96330.59;5017818;28;20069;-65
2022/06/21 04:41:40;;;;;;;15.30;9.75;;;;;;;16.55;100.00;96326.97;5015734;28;20057;-65
2022/06/21 04:44:13;;;;;;;16.95;9.43;;;;;;;16.44;100.00;96334.63;5018329;28;20417;-65
2022/06/21 04:46:48;;;;;;;12.85;8.70;;;;;;;16.50;100.00;96330.19;5021645;28;20512;-65
2022/06/21 04:49:22;;;;;;;13.30;9.15;;;;;;;16.76;100.00;96331.41;5016788;28;20045;-65
2022/06/21 04:51:55;;;;;;;13.02;9.02;;;;;;;16.70;100.00;96333.06;5020483;28;20041;-66
2022/06/21 04:54:24;;;;;;;12.50;8.30;;;;;;;16.66;100.00;96339.88;5014138;28;20049;-65
2022/06/21 04:57:13;;;;;;;11.38;8.48;;;;;;;16.78;100.00;96342.84;5021266;28;20048;-66
2022/06/21 04:59:51;;;;;;;13.63;8.30;;;;;;;16.64;100.00;96345.81;5013548;28;20559;-66
2022/06/21 05:02:27;;;;;;;11.35;8.25;;;;;;;16.58;100.00;96342.72;5015198;28;20076;-65
2022/06/21 05:04:56;;;;;;;10.55;7.78;;;;;;;16.55;100.00;96354.59;5023325;28;20037;-66
2022/06/21 05:07:25;;;;;;;18.63;12.57;;;;;;;16.56;100.00;96344.31;5016205;28;20065;-66
2022/06/21 05:09:54;;;;;;;12.17;8.30;;;;;;;16.78;100.00;96342.84;5021258;28;20072;-66
2022/06/21 05:12:29;;;;;;;13.75;7.40;;;;;;;16.98;100.00;96339.44;5016129;28;20132;-65
2022/06/21 05:15:03;;;;;;;10.30;7.40;;;;;;;17.03;100.00;96338.19;5020503;28;20034;-66
2022/06/21 05:17:32;;;;;;;12.45;7.28;;;;;;;17.06;100.00;96349.19;5018368;28;20049;-66
2022/06/21 05:20:03;;;;;;;13.37;6.90;;;;;;;17.10;100.00;96335.31;5036627;28;20123;-65
2022/06/21 05:22:35;;;;;;;13.90;7.53;;;;;;;17.12;100.00;96335.66;5013030;28;20048;-65
2022/06/21 05:25:03;;;;;;;12.88;7.43;;;;;;;17.61;100.00;96344.38;5020158;28;20462;-65
2022/06/21 05:27:38;;;;;;;10.25;6.97;;;;;;;17.81;100.00;96340.84;5013039;28;20052;-64
2022/06/21 05:30:29;;;;;;;9.60;6.85;;;;;;;18.11;100.00;96334.38;5020187;28;20042;-67
2022/06/21 05:32:59;;;;;;;9.57;6.80;;;;;;;18.15;100.00;96333.13;5040018;28;20115;-64
2022/06/21 05:35:32;;;;;;;11.15;6.50;;;;;;;18.28;100.00;96338.03;5017248;28;21775;-64
2022/06/21 05:38:10;;;;;;;9.90;6.80;;;;;;;18.88;100.00;96344.31;5020416;28;20069;-66
2022/06/21 05:40:56;;;;;;;11.70;6.28;;;;;;;18.85;100.00;96347.97;5019800;28;20041;-65
2022/06/21 05:43:33;;;;;;;8.93;5.72;;;;;;;19.25;100.00;96342.31;5016271;28;20558;-65
2022/06/21 05:46:02;;;;;;;8.98;6.70;;;;;;;18.78;100.00;96339.78;5019791;28;20087;-64
2022/06/21 05:48:31;;;;;;;8.80;6.22;;;;;;;18.98;100.00;96342.53;5017246;28;20064;-63
2022/06/21 05:50:58;;;;;;;9.02;6.28;;;;;;;19.53;100.00;96342.81;5018484;28;20103;-63
2022/06/21 05:53:30;;;;;;;11.13;5.70;;;;;;;19.54;100.00;96343.63;5016129;28;20231;-65
2022/06/21 05:55:57;;;;;;;14.38;6.40;;;;;;;19.31;100.00;96350.13;5017608;28;20025;-64
2022/06/21 05:58:29;;;;;;;8.88;5.90;;;;;;;19.58;100.00;96349.84;5017686;28;20060;-64
2022/06/21 06:00:59;;;;;;;10.30;5.95;;;;;;;18.85;100.00;96342.44;5022321;28;20137;-64
2022/06/21 06:03:30;;;;;;;9.98;6.93;;;;;;;18.55;100.00;96348.97;5016466;28;20080;-65
2022/06/21 06:06:02;;;;;;;10.15;6.45;;;;;;;18.96;100.00;96349.72;5014582;28;20041;-66
2022/06/21 06:08:33;;;;;;;11.82;6.78;;;;;;;19.03;100.00;96349.53;5014252;28;20041;-65
2022/06/21 06:11:01;;;;;;;10.90;6.72;;;;;;;18.71;100.00;96354.56;5021009;28;20140;-65
2022/06/21 06:13:35;;;;;;;9.32;5.95;;;;;;;18.62;100.00;96348.81;5016239;28;20041;-65
2022/06/21 06:16:10;;;;;;;10.93;5.72;;;;;;;19.57;100.00;96348.28;5020495;28;20052;-65
2022/06/21 06:18:51;;;;;;;10.20;5.53;;;;;;;19.31;100.00;96356.44;5024861;28;20520;-65
2022/06/21 06:21:23;;;;;;;10.35;5.40;;;;;;;19.41;100.00;96357.38;5013328;28;20045;-66
2022/06/21 06:23:56;;;;;;;11.35;5.88;;;;;;;18.84;100.00;96345.63;5021591;28;20037;-65
2022/06/21 06:26:26;;;;;;;13.73;6.00;;;;;;;18.58;100.00;96330.69;5018705;28;20449;-63
2022/06/21 06:29:07;;;;;;;8.68;6.05;;;;;;;18.47;100.00;96336.44;5026973;28;20438;-64
2022/06/21 06:32:02;;;;;;;9.88;5.82;;;;;;;18.82;100.00;96339.72;5018905;28;20501;-64
2022/06/21 06:34:31;;;;;;;9.13;5.78;;;;;;;20.40;97.21;96341.34;5024015;28;20041;-65
2022/06/21 06:37:04;;;;;;;8.13;5.60;;;;;;;20.09;95.40;96341.03;5027545;28;20094;-64
2022/06/21 06:39:33;;;;;;;8.75;5.55;;;;;;;20.67;92.37;96343.81;5025897;28;20064;-64
2022/06/21 06:42:28;;;;;;;8.57;4.73;;;;;;;22.05;86.93;96350.16;5027478;28;20158;-66
2022/06/21 06:44:59;;;;;;;8.02;4.85;;;;;;;23.36;76.58;96347.00;5033629;28;20077;-64
2022/06/21 06:47:35;;;;;;;7.80;4.97;;;;;;;20.87;87.23;96357.53;5021132;28;20707;-63
2022/06/21 06:50:09;;;;;;;8.52;4.85;;;;;;;21.44;86.88;96359.75;5027301;28;20075;-65
2022/06/21 06:52:50;;;;;;;8.93;4.32;;;;;;;22.37;80.84;96355.91;5026176;28;20065;-64
2022/06/21 06:55:35;;;;;;;9.60;4.85;;;;;;;21.86;80.50;96362.38;5022132;28;20565;-64
2022/06/21 06:58:05;;;;;;;8.00;4.85;;;;;;;21.04;86.62;96363.00;5024292;28;20045;-64
2022/06/21 07:00:57;;;;;;;6.78;4.45;;;;;;;21.23;85.90;96373.16;5018760;28;20136;-64
2022/06/21 07:03:27;;;;;;;9.27;5.22;;;;;;;20.67;89.35;96377.19;5021438;28;20687;-64
2022/06/21 07:06:05;;;;;;;7.57;4.57;;;;;;;21.45;87.26;96369.69;5026458;28;20056;-64
2022/06/21 07:08:37;;;;;;;8.43;4.95;;;;;;;21.40;84.65;96376.59;5023524;28;20041;-67
2022/06/21 07:11:13;;;;;;;7.30;4.32;;;;;;;21.63;86.38;96374.72;5024082;28;20041;-64
2022/06/21 07:13:39;;;;;;;6.38;4.03;;;;;;;22.56;80.25;96381.91;5024680;28;20048;-64
2022/06/21 07:16:12;;;;;;;12.30;6.82;;;;;;;22.35;80.88;96378.66;5021826;28;20049;-65
2022/06/21 07:18:46;;;;;;;9.13;5.05;;;;;;;22.78;79.51;96370.72;5027365;28;20042;-64
2022/06/21 07:21:14;;;;;;;9.98;5.30;;;;;;;20.87;87.07;96365.88;5020488;28;20569;-64
2022/06/21 07:23:39;;;;;;;7.82;5.47;;;;;;;20.84;89.48;96368.78;5027157;28;20053;-63
2022/06/21 07:26:19;;;;;;;11.35;5.18;;;;;;;21.11;90.12;96362.78;5015419;28;20553;-64
2022/06/21 07:28:54;;;;;;;11.10;5.57;;;;;;;20.58;92.73;96360.31;5006528;28;20171;-64
2022/06/21 07:31:28;;;;;;;10.00;5.82;;;;;;;20.08;94.65;96353.34;5001267;28;20117;-64
2022/06/21 07:34:10;;;;;;;11.18;6.68;;;;;;;20.03;95.94;96349.91;5006679;28;20064;-63
2022/06/21 07:36:51;;;;;;;10.48;5.30;;;;;;;20.60;93.69;96344.75;5015357;28;20046;-64
2022/06/21 07:39:31;;;;;;;9.98;6.10;;;;;;;21.14;90.97;96347.94;5017177;28;20118;-62
2022/06/21 07:42:01;;;;;;;9.68;5.05;;;;;;;22.31;85.69;96348.09;5019667;28;20566;-63
2022/06/21 07:44:39;;;;;;;11.65;5.55;;;;;;;21.85;85.78;96360.84;5019701;28;20410;-64
2022/06/21 07:47:35;;;;;;;13.35;4.90;;;;;;;22.15;83.27;96362.97;5016749;28;20120;-64
2022/06/21 07:50:17;;;;;;;10.27;4.82;;;;;;;22.05;83.79;96369.69;5023493;28;20041;-63
2022/06/21 07:53:14;;;;;;;10.13;5.25;;;;;;;22.18;82.50;96377.25;5022974;28;20045;-63
2022/06/21 07:55:55;;;;;;;9.40;5.63;;;;;;;22.78;78.88;96385.47;5022083;28;20033;-65
2022/06/21 07:58:30;;;;;;;10.60;5.47;;;;;;;22.03;82.59;96374.16;5018707;28;20413;-64
2022/06/21 08:06:42;;;;;;;9.43;6.13;;;;;;;22.57;80.19;96361.91;5015566;28;20379;-65
2022/06/21 08:09:14;;;;;;;;;;;;;;;23.81;74.11;96363.13;5018451;28;20033;-65
2022/06/21 08:11:42;;;;;;;9.45;4.93;;;;;;;23.55;74.12;96356.19;5020622;28;20366;-64
2022/06/21 08:14:09;;;;;;;6.90;4.85;;;;;;;23.55;75.80;96354.22;5016632;28;20072;-64
2022/06/21 08:16:43;;;;;;;8.82;5.00;;;;;;;23.10;77.97;96349.97;5022225;28;20477;-64
2022/06/21 08:19:26;;;;;;;8.85;4.68;;;;;;;22.36;81.41;96357.13;5017297;28;20058;-65
2022/06/21 08:22:06;;;;;;;7.32;5.00;;;;;;;22.50;85.54;96343.41;5021910;28;20068;-64
2022/06/21 08:24:39;;;;;;;10.77;5.47;;;;;;;23.03;81.05;96339.06;5021009;28;20512;-65
2022/06/21 08:27:34;;;;;;;11.55;5.60;;;;;;;23.28;78.20;96354.88;5016427;28;20060;-64
2022/06/21 08:30:16;;;;;;;8.95;5.03;;;;;;;23.82;73.86;96367.50;5022481;28;20060;-64
2022/06/21 08:32:54;;;;;;;10.63;5.22;;;;;;;24.21;72.24;96393.00;5002713;28;20049;-66
2022/06/21 08:35:32;;;;;;;12.35;6.13;;;;;;;23.32;75.34;96389.06;4997959;28;20486;-65
2022/06/21 08:38:00;;;;;;;13.93;7.68;;;;;;;22.45;80.97;96390.66;5020647;28;20045;-64
2022/06/21 08:40:52;;;;;;;10.93;5.40;;;;;;;22.67;80.70;96371.13;5016995;28;20077;-65
2022/06/21 08:43:40;;;;;;;12.25;5.22;;;;;;;23.85;74.75;96360.97;5016411;28;20057;-65
2022/06/21 08:46:18;;;;;;;10.30;4.95;;;;;;;24.66;70.89;96379.50;4997114;28;20188;-63
2022/06/21 08:49:08;;;;;;;13.07;5.18;;;;;;;23.87;73.53;96385.66;5021140;28;20044;-64
2022/06/21 08:51:58;;;;;;;7.18;4.65;;;;;;;25.60;67.18;96375.97;5006777;28;20049;-65
2022/06/21 08:54:29;;;;;;;;;;;;;;;24.07;70.86;96376.06;5017443;28;20128;-66
2022/06/21 08:57:18;;;;;;;7.63;4.30;;;;;;;23.90;72.57;96381.19;5021492;28;19960;-65
2022/06/21 08:59:50;;;;;;;8.93;5.00;;;;;;;23.53;76.04;96367.06;5004438;28;20052;-65
2022/06/21 09:02:18;;;;;;;11.27;5.95;;;;;;;23.72;76.38;96368.69;5016007;28;20379;-65
2022/06/21 09:05:12;;;;;;;8.93;4.97;;;;;;;25.41;67.55;96368.91;5017746;28;20035;-65
2022/06/21 09:08:03;;;;;;;12.77;5.38;;;;;;;26.48;62.02;96380.41;4979610;28;20053;-65
2022/06/21 09:11:06;;;;;;;8.52;5.55;;;;;;;25.60;64.25;96375.19;5020468;28;20045;-65
2022/06/21 09:13:44;;;;;;;9.88;5.47;;;;;;;25.42;65.97;96382.44;5020498;28;20041;-65
2022/06/21 09:16:18;;;;;;;8.93;5.60;;;;;;;24.29;72.69;96387.13;5014841;28;20046;-65
2022/06/21 09:19:04;;;;;;;11.52;7.22;;;;;;;23.91;73.42;96389.09;5021557;28;20049;-65
2022/06/21 09:21:49;;;;;;;10.38;6.20;;;;;;;25.09;67.70;96397.16;5019757;28;20053;-64
2022/06/21 09:24:57;;;;;;;11.85;6.32;;;;;;;25.29;66.05;96391.06;5016083;28;20071;-64
2022/06/21 09:27:35;;;;;;;8.43;5.38;;;;;;;24.39;69.68;96389.44;5016751;28;20103;-64
2022/06/21 09:30:12;;;;;;;14.20;5.70;;;;;;;25.13;66.30;96394.19;5022666;28;20037;-65
2022/06/21 09:33:15;;;;;;;9.35;5.47;;;;;;;26.19;63.50;96400.75;5018869;28;20060;-65
2022/06/21 09:35:56;;;;;;;12.63;7.07;;;;;;;24.74;69.38;96380.75;5018503;28;20528;-66
2022/06/21 09:38:36;;;;;;;8.82;5.03;;;;;;;25.47;66.96;96384.59;5013047;28;21098;-65
2022/06/21 09:41:20;;;;;;;12.50;6.03;;;;;;;26.23;62.81;96378.88;5019813;28;20049;-65
2022/06/21 09:44:00;;;;;;;12.25;5.07;;;;;;;25.73;64.67;96379.34;5020301;28;20402;-65
2022/06/21 09:46:47;;;;;;;12.35;5.53;;;;;;;25.00;67.66;96372.75;5016154;28;20065;-65
2022/06/21 09:49:39;;;;;;;10.90;5.07;;;;;;;24.09;74.76;96368.75;5017260;28;20104;-64
2022/06/21 09:52:31;;;;;;;13.23;7.38;;;;;;;24.25;70.59;96364.88;5016446;28;20033;-64
2022/06/21 09:55:14;;;;;;;10.35;5.65;;;;;;;24.92;69.77;96354.72;5019093;28;20045;-65
2022/06/21 09:58:07;;;;;;;11.38;5.95;;;;;;;25.55;67.43;96354.19;5000477;28;20112;-65
2022/06/21 10:01:08;;;;;;;14.27;6.22;;;;;;;24.16;72.37;96339.69;5012574;28;20041;-63
2022/06/21 10:03:45;;;;;;;10.73;6.13;;;;;;;24.59;72.98;96338.59;4959558;28;20242;-64
2022/06/21 10:06:30;;;;;;;14.35;6.47;;;;;;;24.10;75.41;96341.56;4995063;28;20116;-64
2022/06/21 10:09:02;;;;;;;13.68;6.40;;;;;;;24.46;72.63;96348.41;5014811;28;20382;-65
2022/06/21 10:12:25;;;;;;;10.02;5.95;;;;;;;24.35;74.03;96344.06;5017444;28;20041;-65
2022/06/21 10:15:25;;;;;;;12.77;6.03;;;;;;;23.58;78.22;96314.13;4937906;28;20512;-66
2022/06/21 10:18:23;;;;;;;12.70;6.60;;;;;;;23.44;78.88;96317.50;4959139;28;20512;-66
2022/06/21 10:21:15;;;;;;;13.40;6.22;;;;;;;23.98;78.33;96330.03;5009600;28;20046;-65
2022/06/21 10:24:16;;;;;;;9.70;5.30;;;;;;;25.05;74.46;96334.13;5020749;28;20076;-64
2022/06/21 10:27:11;;;;;;;11.90;5.78;;;;;;;26.50;65.80;96324.53;4995606;28;20049;-66
2022/06/21 10:29:55;;;;;;;9.32;4.85;;;;;;;26.40;65.45;96322.28;5018232;28;20102;-65
2022/06/21 10:32:28;;;;;;;8.43;5.57;;;;;;;25.97;67.05;96325.31;5015002;28;20060;-65
2022/06/21 10:35:21;;;;;;;9.07;5.57;;;;;;;26.59;64.14;96323.66;5021675;28;20067;-64
2022/06/21 10:38:05;;;;;;;9.77;5.18;;;;;;;26.13;65.83;96315.69;5020425;28;20049;-65
2022/06/21 10:40:33;;;;;;;14.98;6.03;;;;;;;26.24;66.19;96299.03;5018574;28;20041;-65
2022/06/21 10:43:19;;;;;;;11.80;5.63;;;;;;;26.33;66.31;96304.56;5020644;28;20057;-65
2022/06/21 10:45:53;;;;;;;11.68;5.65;;;;;;;25.72;71.20;96310.47;5059754;22;20056;-64
2022/06/21 10:48:45;;;;;;;9.15;4.47;;;;;;;26.19;66.70;96315.78;5037679;28;20040;-66
2022/06/21 10:51:29;;;;;;;9.38;5.40;;;;;;;25.77;70.11;96311.84;4997377;28;20128;-64
2022/06/21 10:54:32;;;;;;;11.82;5.60;;;;;;;26.82;63.89;96315.66;5022752;28;20037;-66
2022/06/21 10:57:18;;;;;;;9.50;5.78;;;;;;;27.28;62.07;96306.72;5035882;28;20516;-66
2022/06/21 11:02:57;;;;;;;8.80;5.05;;;;;;;27.92;63.62;96298.66;5042929;28;20048;-66
2022/06/21 11:05:41;;;;;;;14.05;5.80;;;;;;;27.20;65.22;96291.50;5036888;28;20601;-66
2022/06/21 11:08:15;;;;;;;9.30;5.40;;;;;;;27.52;65.39;96283.28;5033538;28;20068;-65
2022/06/21 11:10:47;;;;;;;11.32;5.45;;;;;;;28.16;62.19;96278.72;5041064;28;20043;-67
2022/06/21 11:13:17;;;;;;;10.82;5.25;;;;;;;28.02;63.29;96277.56;5042239;28;20481;-65
2022/06/21 11:16:02;;;;;;;10.48;5.97;;;;;;;26.58;67.34;96280.00;5052912;28;20076;-65
2022/06/21 11:18:55;;;;;;;9.27;5.53;;;;;;;27.44;63.86;96277.28;5042556;28;20057;-65
2022/06/21 11:21:49;;;;;;;8.43;4.53;;;;;;;28.09;62.21;96281.97;5042318;28;20091;-65
2022/06/21 11:24:23;;;;;;;16.98;5.63;;;;;;;27.83;64.67;96268.59;5006538;28;20123;-67
2022/06/21 11:26:57;;;;;;;7.53;4.68;;;;;;;27.68;66.31;96265.06;5042522;28;20135;-65
2022/06/21 11:29:22;;;;;;;8.95;4.97;;;;;;;27.75;65.69;96279.50;5036840;28;20067;-65
2022/06/21 11:31:57;;;;;;;9.70;4.63;;;;;;;27.75;65.45;96276.69;5039526;28;20037;-66
2022/06/21 11:34:43;;;;;;;11.15;5.20;;;;;;;27.69;66.25;96261.00;5039615;28;20382;-64
2022/06/21 11:37:31;;;;;;;8.50;5.38;;;;;;;27.57;66.69;96263.69;5039545;28;20101;-65
2022/06/21 11:40:32;;;;;;;9.57;6.38;;;;;;;27.16;66.73;96263.59;5046667;28;20126;-67
2022/06/21 11:42:58;;;;;;;11.35;5.40;;;;;;;26.82;68.66;96263.06;5043988;28;20456;-65
2022/06/21 11:45:44;;;;;;;11.73;6.07;;;;;;;27.51;66.83;96256.41;5040428;28;20514;-65
2022/06/21 11:48:43;;;;;;;11.98;6.38;;;;;;;28.37;64.00;96254.88;5040908;28;20037;-65
2022/06/21 11:51:09;;;;;;;12.05;5.85;;;;;;;28.29;64.16;96245.34;5038019;28;20037;-65
2022/06/21 11:53:59;;;;;;;15.82;5.78;;;;;;;28.40;64.57;96239.03;5039764;28;20036;-65
2022/06/21 11:56:37;;;;;;;9.40;5.88;;;;;;;28.47;63.55;96252.69;5054308;28;20041;-66
2022/06/21 11:59:24;;;;;;;9.85;4.53;;;;;;;28.36;63.46;96249.75;5042824;28;20124;-64
2022/06/21 12:02:00;;;;;;;14.82;5.47;;;;;;;27.41;67.67;96255.78;5045274;28;20037;-66
2022/06/21 12:04:35;;;;;;;11.88;5.53;;;;;;;27.18;68.81;96266.69;5040372;28;20037;-66
2022/06/21 12:07:16;;;;;;;11.18;5.20;;;;;;;27.22;69.41;96270.06;5044916;28;20033;-66
2022/06/21 12:09:55;;;;;;;8.93;5.38;;;;;;;27.71;67.75;96272.53;5055298;28;20056;-66
2022/06/21 12:12:47;;;;;;;11.00;5.00;;;;;;;27.85;66.40;96271.69;5047432;28;20044;-66
2022/06/21 12:15:44;;;;;;;7.43;4.63;;;;;;;27.54;67.65;96278.72;5041018;28;20045;-67
2022/06/21 12:18:14;;;;;;;8.95;4.70;;;;;;;27.53;67.16;96279.19;5040240;28;20174;-65